sensor_id;sensor_type;location;lat;lon;timestamp;P1;durP1;ratioP1;P2;durP2;ratioP2
37087;SDS011;23002;52.676;6.432;2023-07-29T00:00:54;6.68;;;3.95;;
37087;SDS011;23002;52.676;6.432;2023-07-29T00:03:22;7.15;;;4.05;;
37087;SDS011;23002;52.676;6.432;2023-07-29T00:05:50;6.88;;;3.50;;
37087;SDS011;23002;52.676;6.432;2023-07-29T00:08:17;7.45;;;3.72;;
37087;SDS011;23002;52.676;6.432;2023-07-29T00:10:44;7.78;;;3.28;;
37087;SDS011;23002;52.676;6.432;2023-07-29T00:13:11;6.50;;;3.72;;
37087;SDS011;23002;52.676;6.432;2023-07-29T00:15:38;7.00;;;3.33;;
37087;SDS011;23002;52.676;6.432;2023-07-29T00:18:06;6.70;;;3.00;;
37087;SDS011;23002;52.676;6.432;2023-07-29T00:20:33;6.47;;;3.28;;
37087;SDS011;23002;52.676;6.432;2023-07-29T00:23:00;5.63;;;3.72;;
37087;SDS011;23002;52.676;6.432;2023-07-29T00:25:28;7.18;;;3.40;;
37087;SDS011;23002;52.676;6.432;2023-07-29T00:27:56;6.32;;;3.42;;
37087;SDS011;23002;52.676;6.432;2023-07-29T00:30:24;6.57;;;3.47;;
37087;SDS011;23002;52.676;6.432;2023-07-29T00:32:52;6.88;;;3.40;;
37087;SDS011;23002;52.676;6.432;2023-07-29T00:35:19;7.28;;;3.30;;
37087;SDS011;23002;52.676;6.432;2023-07-29T00:37:46;7.03;;;3.28;;
37087;SDS011;23002;52.676;6.432;2023-07-29T00:40:19;5.70;;;3.30;;
37087;SDS011;23002;52.676;6.432;2023-07-29T00:42:46;8.75;;;3.25;;
37087;SDS011;23002;52.676;6.432;2023-07-29T00:45:14;9.23;;;3.88;;
37087;SDS011;23002;52.676;6.432;2023-07-29T00:47:41;6.60;;;3.22;;
37087;SDS011;23002;52.676;6.432;2023-07-29T00:50:11;7.57;;;3.67;;
37087;SDS011;23002;52.676;6.432;2023-07-29T00:52:38;7.13;;;3.55;;
37087;SDS011;23002;52.676;6.432;2023-07-29T00:55:06;6.75;;;3.70;;
37087;SDS011;23002;52.676;6.432;2023-07-29T00:57:33;5.85;;;2.88;;
37087;SDS011;23002;52.676;6.432;2023-07-29T01:00:02;6.35;;;2.85;;
37087;SDS011;23002;52.676;6.432;2023-07-29T01:02:30;7.32;;;3.90;;
37087;SDS011;23002;52.676;6.432;2023-07-29T01:04:59;7.68;;;3.60;;
37087;SDS011;23002;52.676;6.432;2023-07-29T01:10:01;10.05;;;4.00;;
37087;SDS011;23002;52.676;6.432;2023-07-29T01:12:34;9.07;;;3.92;;
37087;SDS011;23002;52.676;6.432;2023-07-29T01:15:10;6.68;;;3.35;;
37087;SDS011;23002;52.676;6.432;2023-07-29T01:17:42;7.50;;;3.38;;
37087;SDS011;23002;52.676;6.432;2023-07-29T01:20:14;8.73;;;3.67;;
37087;SDS011;23002;52.676;6.432;2023-07-29T01:22:41;7.28;;;4.07;;
37087;SDS011;23002;52.676;6.432;2023-07-29T01:25:09;6.03;;;3.58;;
37087;SDS011;23002;52.676;6.432;2023-07-29T01:27:36;6.88;;;3.03;;
37087;SDS011;23002;52.676;6.432;2023-07-29T01:30:03;8.60;;;3.95;;
37087;SDS011;23002;52.676;6.432;2023-07-29T01:37:53;9.57;;;3.58;;
37087;SDS011;23002;52.676;6.432;2023-07-29T01:40:22;6.07;;;3.17;;
37087;SDS011;23002;52.676;6.432;2023-07-29T01:42:50;8.13;;;3.35;;
37087;SDS011;23002;52.676;6.432;2023-07-29T01:45:17;7.13;;;3.22;;
37087;SDS011;23002;52.676;6.432;2023-07-29T01:47:46;6.30;;;2.90;;
37087;SDS011;23002;52.676;6.432;2023-07-29T01:50:13;8.15;;;3.53;;
37087;SDS011;23002;52.676;6.432;2023-07-29T01:52:40;6.55;;;3.33;;
37087;SDS011;23002;52.676;6.432;2023-07-29T01:55:07;5.88;;;2.97;;
37087;SDS011;23002;52.676;6.432;2023-07-29T01:57:35;5.82;;;2.80;;
37087;SDS011;23002;52.676;6.432;2023-07-29T02:00:02;5.22;;;2.58;;
37087;SDS011;23002;52.676;6.432;2023-07-29T02:02:30;6.68;;;3.25;;
37087;SDS011;23002;52.676;6.432;2023-07-29T02:04:57;5.90;;;2.90;;
37087;SDS011;23002;52.676;6.432;2023-07-29T02:07:24;6.85;;;2.92;;
37087;SDS011;23002;52.676;6.432;2023-07-29T02:09:53;4.85;;;2.67;;
37087;SDS011;23002;52.676;6.432;2023-07-29T02:12:20;4.85;;;2.50;;
37087;SDS011;23002;52.676;6.432;2023-07-29T02:14:47;6.72;;;2.65;;
37087;SDS011;23002;52.676;6.432;2023-07-29T02:17:14;4.43;;;2.60;;
37087;SDS011;23002;52.676;6.432;2023-07-29T02:19:41;3.58;;;2.10;;
37087;SDS011;23002;52.676;6.432;2023-07-29T02:22:10;5.25;;;2.15;;
37087;SDS011;23002;52.676;6.432;2023-07-29T02:24:37;4.93;;;2.53;;
37087;SDS011;23002;52.676;6.432;2023-07-29T02:27:04;6.45;;;2.38;;
37087;SDS011;23002;52.676;6.432;2023-07-29T02:29:32;3.95;;;1.98;;
37087;SDS011;23002;52.676;6.432;2023-07-29T02:31:59;3.70;;;1.95;;
37087;SDS011;23002;52.676;6.432;2023-07-29T02:34:26;4.53;;;2.20;;
37087;SDS011;23002;52.676;6.432;2023-07-29T02:36:54;3.83;;;1.80;;
37087;SDS011;23002;52.676;6.432;2023-07-29T02:39:21;4.07;;;1.98;;
37087;SDS011;23002;52.676;6.432;2023-07-29T02:41:49;3.22;;;1.83;;
37087;SDS011;23002;52.676;6.432;2023-07-29T02:44:16;4.18;;;2.25;;
37087;SDS011;23002;52.676;6.432;2023-07-29T02:46:44;4.00;;;1.90;;
37087;SDS011;23002;52.676;6.432;2023-07-29T02:49:11;3.95;;;1.88;;
37087;SDS011;23002;52.676;6.432;2023-07-29T02:51:38;4.20;;;1.80;;
37087;SDS011;23002;52.676;6.432;2023-07-29T02:54:05;5.15;;;2.13;;
37087;SDS011;23002;52.676;6.432;2023-07-29T02:56:33;5.68;;;2.10;;
37087;SDS011;23002;52.676;6.432;2023-07-29T02:59:00;3.88;;;1.75;;
37087;SDS011;23002;52.676;6.432;2023-07-29T03:01:27;4.45;;;2.00;;
37087;SDS011;23002;52.676;6.432;2023-07-29T03:03:55;2.92;;;1.70;;
37087;SDS011;23002;52.676;6.432;2023-07-29T03:06:23;3.90;;;2.15;;
37087;SDS011;23002;52.676;6.432;2023-07-29T03:08:51;3.88;;;1.30;;
37087;SDS011;23002;52.676;6.432;2023-07-29T03:11:18;5.10;;;1.90;;
37087;SDS011;23002;52.676;6.432;2023-07-29T03:13:45;2.65;;;1.48;;
37087;SDS011;23002;52.676;6.432;2023-07-29T03:16:16;3.17;;;1.25;;
37087;SDS011;23002;52.676;6.432;2023-07-29T03:18:44;4.55;;;1.50;;
37087;SDS011;23002;52.676;6.432;2023-07-29T03:21:11;4.32;;;1.58;;
37087;SDS011;23002;52.676;6.432;2023-07-29T03:23:38;2.42;;;1.25;;
37087;SDS011;23002;52.676;6.432;2023-07-29T03:26:06;3.17;;;1.40;;
37087;SDS011;23002;52.676;6.432;2023-07-29T03:28:38;3.35;;;1.83;;
37087;SDS011;23002;52.676;6.432;2023-07-29T03:31:05;6.75;;;2.05;;
37087;SDS011;23002;52.676;6.432;2023-07-29T03:33:32;2.83;;;1.38;;
37087;SDS011;23002;52.676;6.432;2023-07-29T03:36:00;3.38;;;1.33;;
37087;SDS011;23002;52.676;6.432;2023-07-29T03:38:27;3.30;;;1.38;;
37087;SDS011;23002;52.676;6.432;2023-07-29T03:40:54;3.42;;;1.67;;
37087;SDS011;23002;52.676;6.432;2023-07-29T03:43:21;4.13;;;1.42;;
37087;SDS011;23002;52.676;6.432;2023-07-29T03:45:48;2.58;;;1.25;;
37087;SDS011;23002;52.676;6.432;2023-07-29T03:48:16;2.88;;;1.38;;
37087;SDS011;23002;52.676;6.432;2023-07-29T03:50:43;2.65;;;1.25;;
37087;SDS011;23002;52.676;6.432;2023-07-29T03:53:10;3.35;;;1.30;;
37087;SDS011;23002;52.676;6.432;2023-07-29T03:55:37;3.05;;;1.45;;
37087;SDS011;23002;52.676;6.432;2023-07-29T03:58:04;3.83;;;1.83;;
37087;SDS011;23002;52.676;6.432;2023-07-29T04:00:32;2.78;;;1.42;;
37087;SDS011;23002;52.676;6.432;2023-07-29T04:02:59;3.03;;;1.33;;
37087;SDS011;23002;52.676;6.432;2023-07-29T04:05:26;5.28;;;1.67;;
37087;SDS011;23002;52.676;6.432;2023-07-29T04:07:56;3.47;;;1.48;;
37087;SDS011;23002;52.676;6.432;2023-07-29T04:10:24;2.40;;;1.27;;
37087;SDS011;23002;52.676;6.432;2023-07-29T04:12:51;4.43;;;1.40;;
37087;SDS011;23002;52.676;6.432;2023-07-29T04:15:18;2.42;;;0.90;;
37087;SDS011;23002;52.676;6.432;2023-07-29T04:17:45;3.83;;;1.63;;
37087;SDS011;23002;52.676;6.432;2023-07-29T04:20:13;2.33;;;1.50;;
37087;SDS011;23002;52.676;6.432;2023-07-29T04:22:40;3.28;;;1.65;;
37087;SDS011;23002;52.676;6.432;2023-07-29T04:25:07;1.52;;;1.13;;
37087;SDS011;23002;52.676;6.432;2023-07-29T04:27:34;7.15;;;1.80;;
37087;SDS011;23002;52.676;6.432;2023-07-29T04:30:01;2.63;;;1.10;;
37087;SDS011;23002;52.676;6.432;2023-07-29T04:32:29;3.55;;;1.48;;
37087;SDS011;23002;52.676;6.432;2023-07-29T04:34:56;2.05;;;1.08;;
37087;SDS011;23002;52.676;6.432;2023-07-29T04:37:23;4.75;;;1.88;;
37087;SDS011;23002;52.676;6.432;2023-07-29T04:39:50;3.80;;;1.42;;
37087;SDS011;23002;52.676;6.432;2023-07-29T04:42:17;5.65;;;1.50;;
37087;SDS011;23002;52.676;6.432;2023-07-29T04:44:45;2.83;;;1.65;;
37087;SDS011;23002;52.676;6.432;2023-07-29T04:47:12;2.47;;;1.40;;
37087;SDS011;23002;52.676;6.432;2023-07-29T04:49:39;3.30;;;1.50;;
37087;SDS011;23002;52.676;6.432;2023-07-29T04:52:06;2.80;;;1.38;;
37087;SDS011;23002;52.676;6.432;2023-07-29T04:54:33;6.15;;;1.65;;
37087;SDS011;23002;52.676;6.432;2023-07-29T04:57:01;4.15;;;1.73;;
37087;SDS011;23002;52.676;6.432;2023-07-29T04:59:28;2.38;;;1.48;;
37087;SDS011;23002;52.676;6.432;2023-07-29T05:01:55;3.08;;;1.52;;
37087;SDS011;23002;52.676;6.432;2023-07-29T05:04:22;5.38;;;1.70;;
37087;SDS011;23002;52.676;6.432;2023-07-29T05:06:50;3.35;;;1.50;;
37087;SDS011;23002;52.676;6.432;2023-07-29T05:09:18;3.85;;;1.83;;
37087;SDS011;23002;52.676;6.432;2023-07-29T05:11:46;2.08;;;1.17;;
37087;SDS011;23002;52.676;6.432;2023-07-29T05:14:15;3.58;;;1.50;;
37087;SDS011;23002;52.676;6.432;2023-07-29T05:16:43;3.38;;;1.75;;
37087;SDS011;23002;52.676;6.432;2023-07-29T05:19:11;3.63;;;1.70;;
37087;SDS011;23002;52.676;6.432;2023-07-29T05:21:38;3.28;;;1.40;;
37087;SDS011;23002;52.676;6.432;2023-07-29T05:24:06;6.28;;;1.70;;
37087;SDS011;23002;52.676;6.432;2023-07-29T05:26:33;4.90;;;2.13;;
37087;SDS011;23002;52.676;6.432;2023-07-29T05:29:00;7.03;;;2.83;;
37087;SDS011;23002;52.676;6.432;2023-07-29T05:31:28;2.55;;;1.45;;
37087;SDS011;23002;52.676;6.432;2023-07-29T05:33:56;3.40;;;1.83;;
37087;SDS011;23002;52.676;6.432;2023-07-29T05:36:23;6.13;;;2.83;;
37087;SDS011;23002;52.676;6.432;2023-07-29T05:38:51;3.60;;;1.80;;
37087;SDS011;23002;52.676;6.432;2023-07-29T05:41:19;3.85;;;2.22;;
37087;SDS011;23002;52.676;6.432;2023-07-29T05:43:46;7.22;;;1.92;;
37087;SDS011;23002;52.676;6.432;2023-07-29T05:46:13;3.13;;;1.60;;
37087;SDS011;23002;52.676;6.432;2023-07-29T05:48:40;3.63;;;1.70;;
37087;SDS011;23002;52.676;6.432;2023-07-29T05:51:07;4.10;;;2.28;;
37087;SDS011;23002;52.676;6.432;2023-07-29T05:53:35;5.13;;;2.20;;
37087;SDS011;23002;52.676;6.432;2023-07-29T05:56:02;7.35;;;2.00;;
37087;SDS011;23002;52.676;6.432;2023-07-29T05:58:30;4.00;;;2.05;;
37087;SDS011;23002;52.676;6.432;2023-07-29T06:00:57;4.07;;;1.98;;
37087;SDS011;23002;52.676;6.432;2023-07-29T06:03:25;7.07;;;1.98;;
37087;SDS011;23002;52.676;6.432;2023-07-29T06:05:52;6.07;;;2.70;;
37087;SDS011;23002;52.676;6.432;2023-07-29T06:08:20;4.53;;;1.90;;
37087;SDS011;23002;52.676;6.432;2023-07-29T06:10:47;4.10;;;1.95;;
37087;SDS011;23002;52.676;6.432;2023-07-29T06:13:15;2.85;;;1.50;;
37087;SDS011;23002;52.676;6.432;2023-07-29T06:15:42;3.63;;;1.35;;
37087;SDS011;23002;52.676;6.432;2023-07-29T06:18:09;4.72;;;1.83;;
37087;SDS011;23002;52.676;6.432;2023-07-29T06:20:36;4.20;;;1.75;;
37087;SDS011;23002;52.676;6.432;2023-07-29T06:23:04;4.07;;;1.67;;
37087;SDS011;23002;52.676;6.432;2023-07-29T06:25:31;5.43;;;2.10;;
37087;SDS011;23002;52.676;6.432;2023-07-29T06:27:58;4.38;;;1.70;;
37087;SDS011;23002;52.676;6.432;2023-07-29T06:30:25;4.63;;;1.92;;
37087;SDS011;23002;52.676;6.432;2023-07-29T06:32:53;3.47;;;1.60;;
37087;SDS011;23002;52.676;6.432;2023-07-29T06:35:21;3.80;;;1.55;;
37087;SDS011;23002;52.676;6.432;2023-07-29T06:37:48;2.85;;;1.48;;
37087;SDS011;23002;52.676;6.432;2023-07-29T06:40:15;4.03;;;1.63;;
37087;SDS011;23002;52.676;6.432;2023-07-29T06:42:42;2.13;;;1.20;;
37087;SDS011;23002;52.676;6.432;2023-07-29T06:45:09;4.28;;;2.05;;
37087;SDS011;23002;52.676;6.432;2023-07-29T06:47:37;5.78;;;1.33;;
37087;SDS011;23002;52.676;6.432;2023-07-29T06:50:04;2.78;;;1.30;;
37087;SDS011;23002;52.676;6.432;2023-07-29T06:52:32;3.65;;;1.83;;
37087;SDS011;23002;52.676;6.432;2023-07-29T06:54:59;2.90;;;1.20;;
37087;SDS011;23002;52.676;6.432;2023-07-29T06:57:26;5.28;;;1.83;;
37087;SDS011;23002;52.676;6.432;2023-07-29T06:59:53;2.75;;;1.30;;
37087;SDS011;23002;52.676;6.432;2023-07-29T07:02:21;2.53;;;1.25;;
37087;SDS011;23002;52.676;6.432;2023-07-29T07:04:48;3.97;;;1.63;;
37087;SDS011;23002;52.676;6.432;2023-07-29T07:07:15;3.45;;;1.35;;
37087;SDS011;23002;52.676;6.432;2023-07-29T07:09:42;3.10;;;1.65;;
37087;SDS011;23002;52.676;6.432;2023-07-29T07:12:10;1.92;;;1.17;;
37087;SDS011;23002;52.676;6.432;2023-07-29T07:14:37;3.13;;;1.25;;
37087;SDS011;23002;52.676;6.432;2023-07-29T07:17:04;2.38;;;1.20;;
37087;SDS011;23002;52.676;6.432;2023-07-29T07:19:31;2.58;;;1.02;;
37087;SDS011;23002;52.676;6.432;2023-07-29T07:21:59;2.20;;;1.08;;
37087;SDS011;23002;52.676;6.432;2023-07-29T07:24:26;3.42;;;1.58;;
37087;SDS011;23002;52.676;6.432;2023-07-29T07:26:53;1.85;;;1.00;;
37087;SDS011;23002;52.676;6.432;2023-07-29T07:29:21;3.55;;;1.23;;
37087;SDS011;23002;52.676;6.432;2023-07-29T07:31:52;2.30;;;0.93;;
37087;SDS011;23002;52.676;6.432;2023-07-29T07:34:20;3.13;;;1.20;;
37087;SDS011;23002;52.676;6.432;2023-07-29T07:36:47;2.40;;;1.20;;
37087;SDS011;23002;52.676;6.432;2023-07-29T07:39:14;2.67;;;1.45;;
37087;SDS011;23002;52.676;6.432;2023-07-29T07:41:41;2.00;;;0.82;;
37087;SDS011;23002;52.676;6.432;2023-07-29T07:44:09;1.27;;;0.95;;
37087;SDS011;23002;52.676;6.432;2023-07-29T07:46:37;1.63;;;1.05;;
37087;SDS011;23002;52.676;6.432;2023-07-29T07:49:05;2.65;;;1.40;;
37087;SDS011;23002;52.676;6.432;2023-07-29T07:51:32;4.22;;;1.30;;
37087;SDS011;23002;52.676;6.432;2023-07-29T07:53:59;3.08;;;1.48;;
37087;SDS011;23002;52.676;6.432;2023-07-29T07:56:26;3.83;;;1.55;;
37087;SDS011;23002;52.676;6.432;2023-07-29T07:58:53;2.00;;;1.25;;
37087;SDS011;23002;52.676;6.432;2023-07-29T08:01:20;1.50;;;0.82;;
37087;SDS011;23002;52.676;6.432;2023-07-29T08:03:48;2.45;;;0.80;;
37087;SDS011;23002;52.676;6.432;2023-07-29T08:06:15;2.72;;;1.15;;
37087;SDS011;23002;52.676;6.432;2023-07-29T08:08:42;1.15;;;1.00;;
37087;SDS011;23002;52.676;6.432;2023-07-29T08:11:09;2.75;;;1.13;;
37087;SDS011;23002;52.676;6.432;2023-07-29T08:13:37;2.05;;;1.13;;
37087;SDS011;23002;52.676;6.432;2023-07-29T08:16:04;2.33;;;0.70;;
37087;SDS011;23002;52.676;6.432;2023-07-29T08:18:31;3.22;;;1.08;;
37087;SDS011;23002;52.676;6.432;2023-07-29T08:20:59;3.30;;;0.90;;
37087;SDS011;23002;52.676;6.432;2023-07-29T08:23:30;2.05;;;0.98;;
37087;SDS011;23002;52.676;6.432;2023-07-29T08:25:59;0.95;;;0.80;;
37087;SDS011;23002;52.676;6.432;2023-07-29T08:30:57;2.55;;;0.85;;
37087;SDS011;23002;52.676;6.432;2023-07-29T08:33:24;1.77;;;0.88;;
37087;SDS011;23002;52.676;6.432;2023-07-29T08:35:52;1.73;;;0.75;;
37087;SDS011;23002;52.676;6.432;2023-07-29T08:38:19;1.13;;;0.77;;
37087;SDS011;23002;52.676;6.432;2023-07-29T08:43:14;1.17;;;0.70;;
37087;SDS011;23002;52.676;6.432;2023-07-29T08:45:43;1.10;;;0.65;;
37087;SDS011;23002;52.676;6.432;2023-07-29T08:48:11;1.25;;;0.80;;
37087;SDS011;23002;52.676;6.432;2023-07-29T08:50:39;1.20;;;0.70;;
37087;SDS011;23002;52.676;6.432;2023-07-29T08:53:08;1.58;;;0.65;;
37087;SDS011;23002;52.676;6.432;2023-07-29T08:55:35;1.75;;;0.40;;
37087;SDS011;23002;52.676;6.432;2023-07-29T08:58:02;1.80;;;0.70;;
37087;SDS011;23002;52.676;6.432;2023-07-29T09:00:30;2.42;;;0.73;;
37087;SDS011;23002;52.676;6.432;2023-07-29T09:02:57;1.90;;;0.80;;
37087;SDS011;23002;52.676;6.432;2023-07-29T09:05:30;2.10;;;0.80;;
37087;SDS011;23002;52.676;6.432;2023-07-29T09:07:58;2.65;;;0.75;;
37087;SDS011;23002;52.676;6.432;2023-07-29T09:10:25;0.70;;;0.45;;
37087;SDS011;23002;52.676;6.432;2023-07-29T09:12:53;0.95;;;0.35;;
37087;SDS011;23002;52.676;6.432;2023-07-29T09:15:27;1.13;;;0.55;;
37087;SDS011;23002;52.676;6.432;2023-07-29T09:17:55;1.52;;;0.63;;
37087;SDS011;23002;52.676;6.432;2023-07-29T09:20:26;2.65;;;0.60;;
37087;SDS011;23002;52.676;6.432;2023-07-29T09:22:54;1.80;;;0.55;;
37087;SDS011;23002;52.676;6.432;2023-07-29T09:25:23;1.80;;;0.73;;
37087;SDS011;23002;52.676;6.432;2023-07-29T09:27:51;1.35;;;0.88;;
37087;SDS011;23002;52.676;6.432;2023-07-29T09:30:21;1.48;;;0.85;;
37087;SDS011;23002;52.676;6.432;2023-07-29T09:32:52;2.03;;;0.55;;
37087;SDS011;23002;52.676;6.432;2023-07-29T09:35:21;2.67;;;0.73;;
37087;SDS011;23002;52.676;6.432;2023-07-29T09:37:49;1.17;;;0.75;;
37087;SDS011;23002;52.676;6.432;2023-07-29T09:40:17;1.42;;;0.52;;
37087;SDS011;23002;52.676;6.432;2023-07-29T09:42:48;2.22;;;0.85;;
37087;SDS011;23002;52.676;6.432;2023-07-29T09:45:26;1.67;;;0.90;;
37087;SDS011;23002;52.676;6.432;2023-07-29T09:47:53;2.53;;;1.20;;
37087;SDS011;23002;52.676;6.432;2023-07-29T09:50:24;1.67;;;0.90;;
37087;SDS011;23002;52.676;6.432;2023-07-29T09:52:52;2.25;;;0.98;;
37087;SDS011;23002;52.676;6.432;2023-07-29T09:55:20;1.50;;;0.93;;
37087;SDS011;23002;52.676;6.432;2023-07-29T09:57:48;1.90;;;0.90;;
37087;SDS011;23002;52.676;6.432;2023-07-29T10:00:15;0.90;;;0.60;;
37087;SDS011;23002;52.676;6.432;2023-07-29T10:02:42;2.80;;;0.88;;
37087;SDS011;23002;52.676;6.432;2023-07-29T10:05:10;1.15;;;0.68;;
37087;SDS011;23002;52.676;6.432;2023-07-29T10:07:38;1.15;;;0.60;;
37087;SDS011;23002;52.676;6.432;2023-07-29T10:10:06;1.10;;;0.70;;
37087;SDS011;23002;52.676;6.432;2023-07-29T10:12:34;2.47;;;0.80;;
37087;SDS011;23002;52.676;6.432;2023-07-29T10:15:05;2.53;;;1.00;;
37087;SDS011;23002;52.676;6.432;2023-07-29T10:17:33;0.40;;;0.40;;
37087;SDS011;23002;52.676;6.432;2023-07-29T10:20:01;2.22;;;0.80;;
37087;SDS011;23002;52.676;6.432;2023-07-29T10:22:33;2.05;;;0.85;;
37087;SDS011;23002;52.676;6.432;2023-07-29T10:25:03;1.67;;;0.85;;
37087;SDS011;23002;52.676;6.432;2023-07-29T10:27:35;1.50;;;0.85;;
37087;SDS011;23002;52.676;6.432;2023-07-29T10:30:06;3.70;;;1.25;;
37087;SDS011;23002;52.676;6.432;2023-07-29T10:32:33;4.55;;;1.30;;
37087;SDS011;23002;52.676;6.432;2023-07-29T10:35:01;2.53;;;1.25;;
37087;SDS011;23002;52.676;6.432;2023-07-29T10:37:28;2.65;;;1.30;;
37087;SDS011;23002;52.676;6.432;2023-07-29T10:39:55;3.03;;;1.63;;
37087;SDS011;23002;52.676;6.432;2023-07-29T10:42:23;1.55;;;1.10;;
37087;SDS011;23002;52.676;6.432;2023-07-29T10:44:51;3.33;;;1.10;;
37087;SDS011;23002;52.676;6.432;2023-07-29T10:47:19;1.38;;;1.00;;
37087;SDS011;23002;52.676;6.432;2023-07-29T10:49:51;2.05;;;1.00;;
37087;SDS011;23002;52.676;6.432;2023-07-29T10:52:29;1.30;;;0.90;;
37087;SDS011;23002;52.676;6.432;2023-07-29T10:54:56;3.00;;;1.15;;
37087;SDS011;23002;52.676;6.432;2023-07-29T10:57:34;2.78;;;1.15;;
37087;SDS011;23002;52.676;6.432;2023-07-29T11:00:02;1.15;;;0.80;;
37087;SDS011;23002;52.676;6.432;2023-07-29T11:02:31;2.10;;;1.00;;
37087;SDS011;23002;52.676;6.432;2023-07-29T11:04:59;1.83;;;1.15;;
37087;SDS011;23002;52.676;6.432;2023-07-29T11:07:31;2.83;;;0.90;;
37087;SDS011;23002;52.676;6.432;2023-07-29T11:10:11;2.30;;;1.02;;
37087;SDS011;23002;52.676;6.432;2023-07-29T11:17:38;1.85;;;0.90;;
37087;SDS011;23002;52.676;6.432;2023-07-29T11:20:06;1.65;;;0.70;;
37087;SDS011;23002;52.676;6.432;2023-07-29T11:22:34;1.70;;;0.68;;
37087;SDS011;23002;52.676;6.432;2023-07-29T11:25:01;1.75;;;0.70;;
37087;SDS011;23002;52.676;6.432;2023-07-29T11:27:29;1.38;;;0.60;;
37087;SDS011;23002;52.676;6.432;2023-07-29T11:30:00;1.40;;;0.60;;
37087;SDS011;23002;52.676;6.432;2023-07-29T11:32:28;2.58;;;1.08;;
37087;SDS011;23002;52.676;6.432;2023-07-29T11:34:55;3.35;;;0.90;;
37087;SDS011;23002;52.676;6.432;2023-07-29T11:37:23;2.08;;;0.65;;
37087;SDS011;23002;52.676;6.432;2023-07-29T11:39:50;1.52;;;0.80;;
37087;SDS011;23002;52.676;6.432;2023-07-29T11:42:17;1.88;;;0.50;;
37087;SDS011;23002;52.676;6.432;2023-07-29T11:44:45;1.52;;;0.70;;
37087;SDS011;23002;52.676;6.432;2023-07-29T11:47:12;1.38;;;0.68;;
37087;SDS011;23002;52.676;6.432;2023-07-29T11:49:43;1.00;;;0.57;;
37087;SDS011;23002;52.676;6.432;2023-07-29T11:52:10;1.23;;;0.83;;
37087;SDS011;23002;52.676;6.432;2023-07-29T11:54:37;1.08;;;0.50;;
37087;SDS011;23002;52.676;6.432;2023-07-29T11:57:08;1.60;;;0.50;;
37087;SDS011;23002;52.676;6.432;2023-07-29T11:59:37;3.08;;;0.60;;
37087;SDS011;23002;52.676;6.432;2023-07-29T12:02:05;0.52;;;0.40;;
37087;SDS011;23002;52.676;6.432;2023-07-29T12:04:33;0.98;;;0.63;;
37087;SDS011;23002;52.676;6.432;2023-07-29T12:07:00;1.05;;;0.60;;
37087;SDS011;23002;52.676;6.432;2023-07-29T12:09:28;1.70;;;0.60;;
37087;SDS011;23002;52.676;6.432;2023-07-29T12:11:56;3.70;;;0.70;;
37087;SDS011;23002;52.676;6.432;2023-07-29T12:14:31;2.78;;;0.68;;
37087;SDS011;23002;52.676;6.432;2023-07-29T12:17:01;1.60;;;0.63;;
37087;SDS011;23002;52.676;6.432;2023-07-29T12:19:35;0.73;;;0.35;;
37087;SDS011;23002;52.676;6.432;2023-07-29T12:22:03;1.38;;;0.75;;
37087;SDS011;23002;52.676;6.432;2023-07-29T12:24:31;1.52;;;0.60;;
37087;SDS011;23002;52.676;6.432;2023-07-29T12:26:58;0.90;;;0.43;;
37087;SDS011;23002;52.676;6.432;2023-07-29T12:29:26;1.63;;;0.50;;
37087;SDS011;23002;52.676;6.432;2023-07-29T12:32:03;2.00;;;0.90;;
37087;SDS011;23002;52.676;6.432;2023-07-29T12:34:30;2.08;;;0.60;;
37087;SDS011;23002;52.676;6.432;2023-07-29T12:36:59;1.40;;;0.60;;
37087;SDS011;23002;52.676;6.432;2023-07-29T12:39:27;2.42;;;0.63;;
37087;SDS011;23002;52.676;6.432;2023-07-29T12:41:55;1.60;;;0.63;;
37087;SDS011;23002;52.676;6.432;2023-07-29T12:44:23;0.93;;;0.57;;
37087;SDS011;23002;52.676;6.432;2023-07-29T12:46:50;1.88;;;0.50;;
37087;SDS011;23002;52.676;6.432;2023-07-29T12:49:17;1.35;;;0.60;;
37087;SDS011;23002;52.676;6.432;2023-07-29T12:51:45;2.67;;;0.65;;
37087;SDS011;23002;52.676;6.432;2023-07-29T12:54:12;1.48;;;0.80;;
37087;SDS011;23002;52.676;6.432;2023-07-29T12:56:39;2.67;;;0.68;;
37087;SDS011;23002;52.676;6.432;2023-07-29T12:59:06;0.90;;;0.43;;
37087;SDS011;23002;52.676;6.432;2023-07-29T13:01:33;0.65;;;0.57;;
37087;SDS011;23002;52.676;6.432;2023-07-29T13:04:00;2.15;;;0.77;;
37087;SDS011;23002;52.676;6.432;2023-07-29T13:06:28;1.50;;;0.80;;
37087;SDS011;23002;52.676;6.432;2023-07-29T13:08:58;1.10;;;0.50;;
37087;SDS011;23002;52.676;6.432;2023-07-29T13:11:25;1.17;;;0.50;;
37087;SDS011;23002;52.676;6.432;2023-07-29T13:13:52;1.38;;;0.68;;
37087;SDS011;23002;52.676;6.432;2023-07-29T13:16:20;0.50;;;0.40;;
37087;SDS011;23002;52.676;6.432;2023-07-29T13:18:47;1.73;;;0.50;;
37087;SDS011;23002;52.676;6.432;2023-07-29T13:21:14;0.55;;;0.45;;
37087;SDS011;23002;52.676;6.432;2023-07-29T13:23:41;3.15;;;0.60;;
37087;SDS011;23002;52.676;6.432;2023-07-29T13:26:08;0.80;;;0.50;;
37087;SDS011;23002;52.676;6.432;2023-07-29T13:28:37;0.82;;;0.52;;
37087;SDS011;23002;52.676;6.432;2023-07-29T13:31:04;0.68;;;0.47;;
37087;SDS011;23002;52.676;6.432;2023-07-29T13:33:31;1.52;;;0.43;;
37087;SDS011;23002;52.676;6.432;2023-07-29T13:36:00;2.42;;;0.80;;
37087;SDS011;23002;52.676;6.432;2023-07-29T13:38:30;0.90;;;0.52;;
37087;SDS011;23002;52.676;6.432;2023-07-29T13:40:57;1.02;;;0.65;;
37087;SDS011;23002;52.676;6.432;2023-07-29T13:43:25;0.95;;;0.60;;
37087;SDS011;23002;52.676;6.432;2023-07-29T13:45:52;3.75;;;0.60;;
37087;SDS011;23002;52.676;6.432;2023-07-29T13:48:19;1.13;;;0.60;;
37087;SDS011;23002;52.676;6.432;2023-07-29T13:50:46;1.17;;;0.43;;
37087;SDS011;23002;52.676;6.432;2023-07-29T13:53:14;1.05;;;0.50;;
37087;SDS011;23002;52.676;6.432;2023-07-29T13:55:41;4.38;;;0.70;;
37087;SDS011;23002;52.676;6.432;2023-07-29T13:58:08;2.40;;;0.80;;
37087;SDS011;23002;52.676;6.432;2023-07-29T14:00:35;2.03;;;1.10;;
37087;SDS011;23002;52.676;6.432;2023-07-29T14:03:02;2.78;;;0.90;;
37087;SDS011;23002;52.676;6.432;2023-07-29T14:05:30;4.28;;;0.90;;
37087;SDS011;23002;52.676;6.432;2023-07-29T14:07:57;3.10;;;1.35;;
37087;SDS011;23002;52.676;6.432;2023-07-29T14:10:24;3.90;;;1.17;;
37087;SDS011;23002;52.676;6.432;2023-07-29T14:12:52;1.77;;;1.08;;
37087;SDS011;23002;52.676;6.432;2023-07-29T14:15:19;1.75;;;1.30;;
37087;SDS011;23002;52.676;6.432;2023-07-29T14:17:46;5.13;;;2.85;;
37087;SDS011;23002;52.676;6.432;2023-07-29T14:20:14;1.75;;;1.10;;
37087;SDS011;23002;52.676;6.432;2023-07-29T14:22:41;16.27;;;12.30;;
37087;SDS011;23002;52.676;6.432;2023-07-29T14:25:08;5.72;;;3.42;;
37087;SDS011;23002;52.676;6.432;2023-07-29T14:27:35;4.78;;;3.65;;
37087;SDS011;23002;52.676;6.432;2023-07-29T14:30:03;2.75;;;2.40;;
37087;SDS011;23002;52.676;6.432;2023-07-29T14:32:31;6.03;;;5.05;;
37087;SDS011;23002;52.676;6.432;2023-07-29T14:34:58;5.95;;;5.35;;
37087;SDS011;23002;52.676;6.432;2023-07-29T14:39:57;3.67;;;2.35;;
37087;SDS011;23002;52.676;6.432;2023-07-29T14:42:25;4.50;;;3.10;;
37087;SDS011;23002;52.676;6.432;2023-07-29T14:44:52;3.72;;;2.50;;
37087;SDS011;23002;52.676;6.432;2023-07-29T14:47:19;7.60;;;4.82;;
37087;SDS011;23002;52.676;6.432;2023-07-29T14:49:46;2.50;;;1.30;;
37087;SDS011;23002;52.676;6.432;2023-07-29T14:52:14;5.63;;;4.15;;
37087;SDS011;23002;52.676;6.432;2023-07-29T14:54:41;3.05;;;1.50;;
37087;SDS011;23002;52.676;6.432;2023-07-29T14:57:09;6.28;;;4.28;;
37087;SDS011;23002;52.676;6.432;2023-07-29T14:59:36;10.70;;;7.57;;
37087;SDS011;23002;52.676;6.432;2023-07-29T15:02:04;7.07;;;2.90;;
37087;SDS011;23002;52.676;6.432;2023-07-29T15:04:32;4.30;;;2.45;;
37087;SDS011;23002;52.676;6.432;2023-07-29T15:06:59;3.47;;;1.70;;
37087;SDS011;23002;52.676;6.432;2023-07-29T15:09:26;2.22;;;1.45;;
37087;SDS011;23002;52.676;6.432;2023-07-29T15:11:53;5.78;;;3.88;;